Terminal Aerodrome Forecast
Issued by NWS

Home | Current Version | Previous Version | Text Only | Print | Product List | Glossary On
Versions: 1 2 3 4 5 6 7 8 9 10 11 12 13 14 15 16 17 18 19 20 21 22 23 24
000
FTUS43 KGRB 251000 AAB
TAFAUW
TAF AMD
KAUW 251043Z 2511/2606 27006KT P6SM OVC012
     FM251500 23007KT P6SM OVC018
     FM252200 19005KT P6SM SCT022 OVC090
     FM260200 00000KT 6SM BR SCT100 BKN250=

USA.gov is the U.S. government's official web portal to all federal, state and local government web resources and services.